createdAt,value
2022-11-14T00:02:12.484Z,15.55
2022-11-14T00:05:19.098Z,15.95
2022-11-14T00:08:19.776Z,14.90
2022-11-14T00:11:26.059Z,12.90
2022-11-14T00:14:28.739Z,13.45
2022-11-14T00:17:35.037Z,20.30
2022-11-14T00:20:41.208Z,15.05
2022-11-14T00:23:46.716Z,16.63
2022-11-14T00:26:34.888Z,17.17
2022-11-14T00:29:21.914Z,14.82
2022-11-14T00:32:08.933Z,15.63
2022-11-14T00:34:55.931Z,15.30
2022-11-14T00:38:02.104Z,15.02
2022-11-14T00:41:03.374Z,18.55
2022-11-14T00:44:09.494Z,13.48
2022-11-14T00:47:15.633Z,20.15
2022-11-14T00:50:02.916Z,14.18
2022-11-14T00:52:49.463Z,14.50
2022-11-14T00:55:36.644Z,12.38
2022-11-14T00:58:23.970Z,14.65
2022-11-14T01:01:12.179Z,11.43
2022-11-14T01:04:18.166Z,15.75
2022-11-14T01:07:24.242Z,14.93
2022-11-14T01:10:30.406Z,11.52
2022-11-14T01:13:18.989Z,15.27
2022-11-14T01:16:05.884Z,12.48
2022-11-14T01:18:53.269Z,13.80
2022-11-14T01:21:40.343Z,16.38
2022-11-14T01:24:27.877Z,12.85
2022-11-14T01:27:15.215Z,14.55
2022-11-14T01:30:02.337Z,14.32
2022-11-14T01:33:00.769Z,13.57
2022-11-14T01:36:01.784Z,17.33
2022-11-14T01:38:54.686Z,16.42
2022-11-14T01:41:50.725Z,15.02
2022-11-14T01:44:56.679Z,12.85
2022-11-14T01:47:47.334Z,16.55
2022-11-14T01:50:34.955Z,15.30
2022-11-14T01:53:21.892Z,15.80
2022-11-14T01:56:09.816Z,12.80
2022-11-14T01:59:03.388Z,13.90
2022-11-14T02:01:52.225Z,16.65
2022-11-14T02:04:40.714Z,18.15
2022-11-14T02:07:30.090Z,16.98
2022-11-14T02:10:32.257Z,11.60
2022-11-14T02:13:38.206Z,15.45
2022-11-14T02:16:55.706Z,13.02
2022-11-14T02:20:10.732Z,15.23
2022-11-14T02:22:57.624Z,16.40
2022-11-14T02:25:44.334Z,11.30
2022-11-14T02:28:32.375Z,13.60
2022-11-14T02:31:20.089Z,13.80
2022-11-14T02:34:21.030Z,16.15
2022-11-14T02:37:23.370Z,10.75
2022-11-14T02:40:29.607Z,14.43
2022-11-14T02:43:33.445Z,20.87
2022-11-14T02:46:35.160Z,13.60
2022-11-14T02:49:41.408Z,14.23
2022-11-14T02:52:47.780Z,11.98
2022-11-14T02:58:57.745Z,14.90
2022-11-14T03:02:04.003Z,16.33
2022-11-14T03:05:09.240Z,12.60
2022-11-14T03:08:15.211Z,21.52
2022-11-14T03:11:06.293Z,14.05
2022-11-14T03:13:53.006Z,17.33
2022-11-14T03:16:40.213Z,12.75
2022-11-14T03:19:27.193Z,15.88
2022-11-14T03:22:14.588Z,14.15
2022-11-14T03:25:02.529Z,10.65
2022-11-14T03:27:49.918Z,12.93
2022-11-14T03:30:36.584Z,10.77
2022-11-14T03:33:42.841Z,13.90
2022-11-14T03:36:44.753Z,10.85
2022-11-14T03:39:50.760Z,10.02
2022-11-14T03:42:58.208Z,12.15
2022-11-14T03:46:04.484Z,10.63
2022-11-14T03:49:10.379Z,11.27
2022-11-14T03:52:16.453Z,12.10
2022-11-14T03:55:15.032Z,7.95
2022-11-14T03:58:02.327Z,7.57
2022-11-14T04:01:08.610Z,10.88
2022-11-14T04:04:14.932Z,11.02
2022-11-14T04:07:21.284Z,14.48
2022-11-14T04:10:08.533Z,10.05
2022-11-14T04:12:55.511Z,10.38
2022-11-14T04:15:42.487Z,10.65
2022-11-14T04:18:30.049Z,10.00
2022-11-14T04:21:17.448Z,13.02
2022-11-14T04:24:08.477Z,10.00
2022-11-14T04:26:58.126Z,12.10
2022-11-14T04:29:45.024Z,9.48
2022-11-14T04:32:51.560Z,7.60
2022-11-14T04:35:57.805Z,12.25
2022-11-14T04:39:04.820Z,8.40
2022-11-14T04:42:10.987Z,7.78
2022-11-14T04:45:17.302Z,11.27
2022-11-14T04:48:19.551Z,10.15
2022-11-14T04:51:21.538Z,7.03
2022-11-14T04:54:26.313Z,7.15
2022-11-14T04:57:32.707Z,8.05
2022-11-14T05:00:19.818Z,9.98
2022-11-14T05:03:22.060Z,8.30
2022-11-14T05:06:09.290Z,8.80
2022-11-14T05:09:11.984Z,6.93
2022-11-14T05:12:13.844Z,8.13
2022-11-14T05:15:19.989Z,9.70
2022-11-14T05:18:20.859Z,8.98
2022-11-14T05:21:26.961Z,12.27
2022-11-14T05:24:31.301Z,8.07
2022-11-14T05:27:25.041Z,9.02
2022-11-14T05:30:31.159Z,10.48
2022-11-14T05:33:24.800Z,6.60
2022-11-14T05:36:13.511Z,10.25
2022-11-14T05:39:00.531Z,13.85
2022-11-14T05:41:47.919Z,8.85
2022-11-14T05:44:36.757Z,8.60
2022-11-14T05:47:33.737Z,9.48
2022-11-14T05:50:36.542Z,9.85
2022-11-14T05:53:38.361Z,9.95
2022-11-14T05:56:25.266Z,9.57
2022-11-14T05:59:12.401Z,8.40
2022-11-14T06:01:59.706Z,9.65
2022-11-14T06:04:46.554Z,10.55
2022-11-14T06:07:56.363Z,10.00
2022-11-14T06:11:04.406Z,10.27
2022-11-14T06:14:11.268Z,10.85
2022-11-14T06:17:12.015Z,11.70
2022-11-14T06:20:16.177Z,12.50
2022-11-14T06:23:24.450Z,10.65
2022-11-14T06:26:24.851Z,11.05
2022-11-14T06:29:30.202Z,13.70
2022-11-14T06:32:21.682Z,8.43
2022-11-14T06:35:09.347Z,13.20
2022-11-14T06:37:56.237Z,12.95
2022-11-14T06:40:42.988Z,14.50
2022-11-14T06:43:33.073Z,11.90
2022-11-14T06:46:23.809Z,9.50
2022-11-14T06:49:30.220Z,13.00
2022-11-14T06:52:36.546Z,11.93
2022-11-14T06:55:25.616Z,13.35
2022-11-14T06:58:13.459Z,12.65
2022-11-14T07:01:04.563Z,12.63
2022-11-14T07:03:53.004Z,16.98
2022-11-14T07:06:54.676Z,13.02
2022-11-14T07:09:59.535Z,16.08
2022-11-14T07:13:05.544Z,16.75
2022-11-14T07:15:56.250Z,14.95
2022-11-14T07:18:57.958Z,14.57
2022-11-14T07:22:01.584Z,14.80
2022-11-14T07:25:07.880Z,13.98
2022-11-14T07:28:11.300Z,15.23
2022-11-14T07:31:18.746Z,15.70
2022-11-14T07:34:13.877Z,20.63
2022-11-14T07:37:19.869Z,17.27
2022-11-14T07:40:20.464Z,19.13
2022-11-14T07:43:26.944Z,12.77
2022-11-14T07:46:33.090Z,17.60
2022-11-14T07:49:36.484Z,21.60
2022-11-14T07:52:42.351Z,18.05
2022-11-14T07:55:30.433Z,17.50
2022-11-14T07:58:17.473Z,15.32
2022-11-14T08:01:05.863Z,17.25
2022-11-14T08:03:57.991Z,19.40
2022-11-14T08:07:04.058Z,16.70
2022-11-14T08:10:11.359Z,16.33
2022-11-14T08:16:40.433Z,22.00
2022-11-14T08:19:40.991Z,25.67
2022-11-14T08:22:47.503Z,19.58
2022-11-14T08:25:49.231Z,18.58
2022-11-14T08:28:54.082Z,28.88
2022-11-14T08:31:55.739Z,20.77
2022-11-14T08:35:04.903Z,22.35
2022-11-14T08:38:10.893Z,27.65
2022-11-14T08:41:07.808Z,24.38
2022-11-14T08:44:07.955Z,27.42
2022-11-14T08:47:13.075Z,34.35
2022-11-14T08:50:13.901Z,32.17
2022-11-14T08:53:17.453Z,33.40
2022-11-14T08:56:04.566Z,32.70
2022-11-14T08:59:10.958Z,30.63
2022-11-14T09:02:13.710Z,34.03
2022-11-14T09:05:18.932Z,29.77
2022-11-14T09:08:07.708Z,31.27
2022-11-14T09:10:54.578Z,29.23
2022-11-14T09:13:41.709Z,31.52
2022-11-14T09:16:28.543Z,32.55
2022-11-14T09:19:26.935Z,33.20
2022-11-14T09:22:33.122Z,37.00
2022-11-14T09:25:34.407Z,30.92
2022-11-14T09:28:35.906Z,46.03
2022-11-14T09:31:33.008Z,42.78
2022-11-14T09:34:43.464Z,39.05
2022-11-14T09:37:49.904Z,33.80
2022-11-14T09:40:57.352Z,33.83
2022-11-14T09:44:04.195Z,35.40
2022-11-14T09:47:04.120Z,37.20
2022-11-14T09:49:54.562Z,34.67
2022-11-14T09:53:04.509Z,38.72
2022-11-14T09:55:52.069Z,37.85
2022-11-14T09:58:48.718Z,31.58
2022-11-14T10:02:13.254Z,33.15
2022-11-14T10:05:23.667Z,29.85
2022-11-14T10:08:25.712Z,29.50
2022-11-14T10:11:18.069Z,26.27
2022-11-14T10:14:28.671Z,31.05
2022-11-14T10:17:34.977Z,25.90
2022-11-14T10:20:23.543Z,33.88
2022-11-14T10:23:19.039Z,26.85
2022-11-14T10:26:19.640Z,30.65
2022-11-14T10:29:18.609Z,30.25
2022-11-14T10:32:15.583Z,24.42
2022-11-14T10:35:09.881Z,31.13
2022-11-14T10:38:03.263Z,30.52
2022-11-14T10:40:58.752Z,20.20
2022-11-14T10:43:58.329Z,23.33
2022-11-14T10:46:56.648Z,22.55
2022-11-14T10:49:46.473Z,22.65
2022-11-14T10:52:54.568Z,19.88
2022-11-14T10:56:03.232Z,18.10
2022-11-14T10:58:50.101Z,19.40
2022-11-14T11:01:44.779Z,16.27
2022-11-14T11:04:36.640Z,16.48
2022-11-14T11:07:42.885Z,16.75
2022-11-14T11:10:48.761Z,15.25
2022-11-14T11:13:37.157Z,18.02
2022-11-14T11:16:24.996Z,17.30
2022-11-14T11:19:27.503Z,19.88
2022-11-14T11:22:33.324Z,17.38
2022-11-14T11:25:27.842Z,22.23
2022-11-14T11:28:14.947Z,18.80
2022-11-14T11:31:07.962Z,18.33
2022-11-14T11:34:04.342Z,14.73
2022-11-14T11:37:10.105Z,22.27
2022-11-14T11:40:07.935Z,22.83
2022-11-14T11:43:38.033Z,16.83
2022-11-14T11:46:45.903Z,19.35
2022-11-14T11:49:52.978Z,19.50
2022-11-14T11:52:59.598Z,21.95
2022-11-14T11:56:10.730Z,21.98
2022-11-14T11:59:29.435Z,18.35
2022-11-14T12:02:31.810Z,19.65
2022-11-14T12:05:38.341Z,21.05
2022-11-14T12:08:45.735Z,24.88
2022-11-14T12:11:34.790Z,18.40
2022-11-14T12:14:24.418Z,24.60
2022-11-14T12:17:46.654Z,27.13
2022-11-14T12:20:47.324Z,22.55
2022-11-14T12:24:02.770Z,23.58
2022-11-14T12:27:01.939Z,18.52
2022-11-14T12:30:07.532Z,20.83
2022-11-14T12:32:57.426Z,12.77
2022-11-14T12:35:53.238Z,18.73
2022-11-14T12:38:45.416Z,16.23
2022-11-14T12:41:37.952Z,17.92
2022-11-14T12:44:30.921Z,21.10
2022-11-14T12:47:23.271Z,16.63
2022-11-14T12:50:35.076Z,16.25
2022-11-14T12:53:48.079Z,16.92
2022-11-14T12:56:34.821Z,15.82
2022-11-14T12:59:36.324Z,18.73
2022-11-14T13:02:45.915Z,16.40
2022-11-14T13:05:55.275Z,19.13
2022-11-14T13:08:45.733Z,15.90
2022-11-14T13:11:52.676Z,16.60
2022-11-14T13:15:10.367Z,18.27
2022-11-14T13:18:32.130Z,19.05
2022-11-14T13:21:47.931Z,15.32
2022-11-14T13:25:01.162Z,15.45
2022-11-14T13:28:07.160Z,17.20
2022-11-14T13:31:07.290Z,17.50
2022-11-14T13:34:00.384Z,36.38
2022-11-14T13:36:59.148Z,23.25
2022-11-14T13:39:55.620Z,20.42
2022-11-14T13:43:02.599Z,20.08
2022-11-14T13:45:52.002Z,20.30
2022-11-14T13:49:01.936Z,24.50
2022-11-14T13:51:49.075Z,23.52
2022-11-14T13:54:36.001Z,22.73
2022-11-14T13:57:22.878Z,25.83
2022-11-14T14:00:20.371Z,26.10
2022-11-14T14:03:12.799Z,18.77
2022-11-14T14:06:11.635Z,24.73
2022-11-14T14:09:24.475Z,26.33
2022-11-14T14:12:30.372Z,25.40
2022-11-14T14:15:31.523Z,31.20
2022-11-14T14:18:19.099Z,26.13
2022-11-14T14:21:10.823Z,29.08
2022-11-14T14:24:06.832Z,24.15
2022-11-14T14:27:16.122Z,25.70
2022-11-14T14:30:11.054Z,21.77
2022-11-14T14:33:10.092Z,23.53
2022-11-14T14:36:05.674Z,20.48
2022-11-14T14:39:17.026Z,24.48
2022-11-14T14:42:18.937Z,23.38
2022-11-14T14:45:17.687Z,23.48
2022-11-14T14:48:07.758Z,21.02
2022-11-14T14:50:56.953Z,20.17
2022-11-14T14:53:52.515Z,23.73
2022-11-14T14:57:15.466Z,22.88
2022-11-14T15:00:20.318Z,21.73
2022-11-14T15:03:22.697Z,21.20
2022-11-14T15:06:40.470Z,22.35
2022-11-14T15:09:38.974Z,23.70
2022-11-14T15:12:46.115Z,20.15
2022-11-14T15:15:52.622Z,20.98
2022-11-14T15:19:00.367Z,24.13
2022-11-14T15:22:24.864Z,27.52
2022-11-14T15:25:20.330Z,26.38
2022-11-14T15:28:20.736Z,28.50
2022-11-14T15:31:24.151Z,29.77
2022-11-14T15:34:30.748Z,30.13
2022-11-14T15:37:23.122Z,25.13
2022-11-14T15:40:19.698Z,22.58
2022-11-14T15:43:28.746Z,26.02
2022-11-14T15:46:38.707Z,30.85
2022-11-14T15:49:28.084Z,23.50
2022-11-14T15:52:22.897Z,29.58
2022-11-14T15:55:15.965Z,31.27
2022-11-14T15:58:27.007Z,21.85
2022-11-14T16:01:16.585Z,25.33
2022-11-14T16:04:03.725Z,26.08
2022-11-14T16:06:50.938Z,22.10
2022-11-14T16:09:55.027Z,21.07
2022-11-14T16:13:04.145Z,26.77
2022-11-14T16:16:00.012Z,27.58
2022-11-14T16:19:03.457Z,24.55
2022-11-14T16:22:12.484Z,24.60
2022-11-14T16:25:03.127Z,23.00
2022-11-14T16:27:51.175Z,33.70
2022-11-14T16:30:40.700Z,28.83
2022-11-14T16:33:36.917Z,33.65
2022-11-14T16:36:42.882Z,31.25
2022-11-14T16:39:42.261Z,26.35
2022-11-14T16:42:46.378Z,34.25
2022-11-14T16:45:50.043Z,28.05
2022-11-14T16:48:49.164Z,28.30
2022-11-14T16:51:49.140Z,28.38
2022-11-14T16:54:47.859Z,30.60
2022-11-14T16:57:54.743Z,30.40
2022-11-14T17:00:44.963Z,26.10
2022-11-14T17:03:41.728Z,28.38
2022-11-14T17:06:29.910Z,34.13
2022-11-14T17:09:29.045Z,27.35
2022-11-14T17:12:38.622Z,23.38
2022-11-14T17:15:44.866Z,29.98
2022-11-14T17:18:44.286Z,27.85
2022-11-14T17:21:36.726Z,27.23
2022-11-14T17:24:28.561Z,25.38
2022-11-14T17:27:18.805Z,28.00
2022-11-14T17:30:06.962Z,28.88
2022-11-14T17:33:13.456Z,22.75
2022-11-14T17:36:08.426Z,27.83
2022-11-14T17:38:55.348Z,28.75
2022-11-14T17:41:59.230Z,34.72
2022-11-14T17:44:46.402Z,25.83
2022-11-14T17:47:38.205Z,29.38
2022-11-14T17:50:25.784Z,24.77
2022-11-14T17:53:13.215Z,24.98
2022-11-14T17:56:01.939Z,28.10
2022-11-14T17:58:54.853Z,27.83
2022-11-14T18:01:54.480Z,27.13
2022-11-14T18:05:02.542Z,21.77
2022-11-14T18:07:50.139Z,24.10
2022-11-14T18:10:37.696Z,28.52
2022-11-14T18:13:24.841Z,22.75
2022-11-14T18:16:17.039Z,26.52
2022-11-14T18:19:08.454Z,27.25
2022-11-14T18:22:00.784Z,23.63
2022-11-14T18:24:48.691Z,23.10
2022-11-14T18:27:40.638Z,22.85
2022-11-14T18:30:42.023Z,19.80
2022-11-14T18:33:45.144Z,20.73
2022-11-14T18:36:56.627Z,23.25
2022-11-14T18:40:16.646Z,24.73
2022-11-14T18:43:29.915Z,32.67
2022-11-14T18:46:37.804Z,29.23
2022-11-14T18:49:46.693Z,23.67
2022-11-14T18:53:02.820Z,24.90
2022-11-14T18:55:53.229Z,19.13
2022-11-14T18:58:43.617Z,17.30
2022-11-14T19:01:35.355Z,24.52
2022-11-14T19:04:23.494Z,23.70
2022-11-14T19:07:38.156Z,21.80
2022-11-14T19:10:39.864Z,26.02
2022-11-14T19:13:39.567Z,21.08
2022-11-14T19:16:31.674Z,20.98
2022-11-14T19:19:18.514Z,26.83
2022-11-14T19:22:06.254Z,21.17
2022-11-14T19:24:54.452Z,21.20
2022-11-14T19:27:44.648Z,19.00
2022-11-14T19:30:33.511Z,25.27
2022-11-14T19:33:30.340Z,18.73
2022-11-14T19:36:32.570Z,16.33
2022-11-14T19:39:26.145Z,20.80
2022-11-14T19:42:14.280Z,18.95
2022-11-14T19:45:01.602Z,20.33
2022-11-14T19:47:53.857Z,22.45
2022-11-14T19:50:40.589Z,24.05
2022-11-14T19:53:47.525Z,21.88
2022-11-14T19:56:35.466Z,20.23
2022-11-14T19:59:24.796Z,22.00
2022-11-14T20:02:16.025Z,19.65
2022-11-14T20:05:08.282Z,19.52
2022-11-14T20:07:56.162Z,25.38
2022-11-14T20:10:48.502Z,19.42
2022-11-14T20:13:37.385Z,24.85
2022-11-14T20:16:41.174Z,31.52
2022-11-14T20:19:38.011Z,20.33
2022-11-14T20:22:53.548Z,23.75
2022-11-14T20:25:51.647Z,29.02
2022-11-14T20:29:01.832Z,24.50
2022-11-14T20:32:15.631Z,24.48
2022-11-14T20:35:20.044Z,21.10
2022-11-14T20:38:19.688Z,22.65
2022-11-14T20:41:07.978Z,23.48
2022-11-14T20:43:58.855Z,19.25
2022-11-14T20:46:46.218Z,19.25
2022-11-14T20:49:33.627Z,25.15
2022-11-14T20:52:22.131Z,19.00
2022-11-14T20:55:11.902Z,19.80
2022-11-14T20:57:58.944Z,20.90
2022-11-14T21:00:46.068Z,19.63
2022-11-14T21:03:42.260Z,20.83
2022-11-14T21:06:35.740Z,21.60
2022-11-14T21:09:36.302Z,19.85
2022-11-14T21:12:45.685Z,19.45
2022-11-14T21:15:48.478Z,23.88
2022-11-14T21:18:45.135Z,21.77
2022-11-14T21:21:52.852Z,21.42
2022-11-14T21:24:50.881Z,16.58
2022-11-14T21:27:57.379Z,23.13
2022-11-14T21:31:03.608Z,21.73
2022-11-14T21:34:04.963Z,21.30
2022-11-14T21:36:58.965Z,19.70
2022-11-14T21:39:48.164Z,18.25
2022-11-14T21:42:41.924Z,18.17
2022-11-14T21:45:28.792Z,19.55
2022-11-14T21:48:16.210Z,19.02
2022-11-14T21:51:05.247Z,16.50
2022-11-14T21:53:54.996Z,20.70
2022-11-14T21:56:42.167Z,19.90
2022-11-14T21:59:31.490Z,18.83
2022-11-14T22:02:55.193Z,18.52
2022-11-14T22:05:58.941Z,22.98
2022-11-14T22:08:46.447Z,18.92
2022-11-14T22:11:35.386Z,19.15
2022-11-14T22:14:22.216Z,18.42
2022-11-14T22:17:09.506Z,19.70
2022-11-14T22:19:58.331Z,23.00
2022-11-14T22:22:47.604Z,19.48
2022-11-14T22:25:35.648Z,18.10
2022-11-14T22:28:22.732Z,13.95
2022-11-14T22:31:15.119Z,15.43
2022-11-14T22:34:02.153Z,18.38
2022-11-14T22:36:49.079Z,17.85
2022-11-14T22:39:36.391Z,17.70
2022-11-14T22:42:23.958Z,16.88
2022-11-14T22:45:11.312Z,18.48
2022-11-14T22:48:17.390Z,19.63
2022-11-14T22:51:17.577Z,20.85
2022-11-14T22:54:10.230Z,17.75
2022-11-14T22:57:01.141Z,15.77
2022-11-14T22:59:48.907Z,18.55
2022-11-14T23:02:55.251Z,13.60
2022-11-14T23:05:42.455Z,18.00
2022-11-14T23:08:31.127Z,19.80
2022-11-14T23:11:37.128Z,15.90
2022-11-14T23:14:43.387Z,12.55
2022-11-14T23:17:49.759Z,17.95
2022-11-14T23:20:55.938Z,19.73
2022-11-14T23:23:55.995Z,16.85
2022-11-14T23:26:47.186Z,12.07
2022-11-14T23:29:42.590Z,14.73
2022-11-14T23:32:39.782Z,17.40
2022-11-14T23:35:43.333Z,13.43
2022-11-14T23:38:49.587Z,18.55
2022-11-14T23:41:55.824Z,12.35
2022-11-14T23:45:01.853Z,14.85
2022-11-14T23:48:07.972Z,18.00
2022-11-14T23:51:09.593Z,11.05
2022-11-14T23:54:08.001Z,12.63
2022-11-14T23:57:14.151Z,15.40
